Time;durP1;ratioP1;P1;durP2;ratioP2;P2;SDS_P1;SDS_P2;PMS_P1;PMS_P2;Temp;Humidity;BMP_temperature;BMP_pressure;BME280_temperature;BME280_humidity;BME280_pressure;Samples;Min_cycle;Max_cycle;Signal;HPM_P1;HPM_P2
2021/05/13 00:00:26;;;;;;;5.10;3.30;;;;;;;;;;5053426;28;20505;-74
2021/05/13 00:02:52;;;;;;;8.93;3.77;;;;;;;;;;5054003;28;20888;-73
2021/05/13 00:05:18;;;;;;;4.07;3.77;;;;;;;;;;5053491;28;20422;-73
2021/05/13 00:07:44;;;;;;;5.50;4.10;;;;;;;;;;5053715;28;20490;-73
2021/05/13 00:13:13;;;;;;;4.40;4.00;;;;;;;;;;5053807;28;20529;-73
2021/05/13 00:15:41;;;;;;;4.53;3.37;;;;;;;;;;5053403;28;20419;-75
2021/05/13 00:18:08;;;;;;;5.33;2.60;;;;;;;;;;5053603;28;20406;-73
2021/05/13 00:20:36;;;;;;;4.73;2.63;;;;;;;;;;5053263;28;20530;-73
2021/05/13 00:23:02;;;;;;;4.40;3.10;;;;;;;;;;5053511;28;20418;-75
2021/05/13 00:25:29;;;;;;;5.50;3.23;;;;;;;;;;5053342;28;20488;-72
2021/05/13 00:27:55;;;;;;;7.43;3.37;;;;;;;;;;5052961;28;20414;-72
2021/05/13 00:30:21;;;;;;;2.87;2.67;;;;;;;;;;5052365;28;20794;-72
2021/05/13 00:32:47;;;;;;;5.40;3.03;;;;;;;;;;5053445;28;20430;-72
2021/05/13 00:35:15;;;;;;;4.43;2.77;;;;;;;;;;5052903;28;20469;-74
2021/05/13 00:37:41;;;;;;;4.10;2.57;;;;;;;;;;5053393;28;20477;-73
2021/05/13 00:43:10;;;;;;;3.90;2.77;;;;;;;;;;5053088;28;20476;-73
2021/05/13 00:45:37;;;;;;;3.30;2.33;;;;;;;;;;5052995;28;20928;-72
2021/05/13 00:48:05;;;;;;;3.50;3.00;;;;;;;;;;5053038;28;20453;-72
2021/05/13 00:50:33;;;;;;;3.17;2.70;;;;;;;;;;5052664;28;20463;-72
2021/05/13 00:53:01;;;;;;;4.17;2.87;;;;;;;;;;5052963;28;20534;-72
2021/05/13 00:58:33;;;;;;;2.93;2.70;;;;;;;;;;5052350;28;20471;-73
2021/05/13 01:01:08;;;;;;;3.90;3.23;;;;;;;;;;5052896;28;20421;-73
2021/05/13 01:03:35;;;;;;;4.83;3.00;;;;;;;;;;5052646;28;20547;-72
2021/05/13 01:06:03;;;;;;;4.00;3.30;;;;;;;;;;5052414;28;20465;-74
2021/05/13 01:08:29;;;;;;;4.23;3.83;;;;;;;;;;5052636;28;20442;-73
2021/05/13 01:10:56;;;;;;;4.27;3.50;;;;;;;;;;5034530;28;20528;-73
2021/05/13 01:13:24;;;;;;;4.80;4.13;;;;;;;;;;5052712;28;20703;-73
2021/05/13 01:16:06;;;;;;;3.70;3.37;;;;;;;;;;5051991;28;20867;-72
2021/05/13 01:18:32;;;;;;;5.73;3.27;;;;;;;;;;5052352;28;20422;-72
2021/05/13 01:20:58;;;;;;;4.47;3.10;;;;;;;;;;5052382;28;20921;-74
2021/05/13 01:23:25;;;;;;;5.23;4.50;;;;;;;;;;5052245;28;20739;-75
2021/05/13 01:28:54;;;;;;;7.90;4.83;;;;;;;;;;5051724;28;20456;-72
2021/05/13 01:31:20;;;;;;;8.20;4.20;;;;;;;;;;5051669;28;20534;-73
2021/05/13 01:33:46;;;;;;;4.73;4.33;;;;;;;;;;5051614;28;20464;-71
2021/05/13 01:36:12;;;;;;;3.63;3.33;;;;;;;;;;5052210;28;20427;-72
2021/05/13 01:38:38;;;;;;;4.70;3.93;;;;;;;;;;5051971;28;20410;-73
2021/05/13 01:44:08;;;;;;;7.90;4.30;;;;;;;;;;5052122;28;20782;-72
2021/05/13 01:46:34;;;;;;;4.07;3.70;;;;;;;;;;5051951;28;20430;-72
2021/05/13 01:49:00;;;;;;;4.50;3.90;;;;;;;;;;5051949;28;21055;-72
2021/05/13 01:51:29;;;;;;;4.00;3.60;;;;;;;;;;5052208;28;20876;-71
2021/05/13 01:53:58;;;;;;;5.17;3.40;;;;;;;;;;5052177;28;20769;-71
2021/05/13 01:56:24;;;;;;;6.00;3.97;;;;;;;;;;5051810;28;20441;-72
2021/05/13 01:58:50;;;;;;;7.43;4.47;;;;;;;;;;5051626;28;20402;-73
2021/05/13 02:01:16;;;;;;;5.23;3.77;;;;;;;;;;5034101;28;20430;-73
2021/05/13 02:03:43;;;;;;;4.93;4.33;;;;;;;;;;5051755;28;20524;-73
2021/05/13 02:06:09;;;;;;;5.37;3.70;;;;;;;;;;5051171;28;20414;-73
2021/05/13 02:08:35;;;;;;;4.73;3.40;;;;;;;;;;5051936;28;20795;-73
2021/05/13 02:14:05;;;;;;;7.00;3.93;;;;;;;;;;5051856;28;20488;-73
2021/05/13 02:16:31;;;;;;;5.30;3.97;;;;;;;;;;5051745;28;20417;-72
2021/05/13 02:18:57;;;;;;;7.30;3.83;;;;;;;;;;5033810;28;20446;-72
2021/05/13 02:21:23;;;;;;;7.83;3.70;;;;;;;;;;5051741;28;20761;-72
2021/05/13 02:23:49;;;;;;;5.20;4.70;;;;;;;;;;5051664;28;20426;-72
2021/05/13 02:29:18;;;;;;;7.63;4.00;;;;;;;;;;5051520;28;20461;-72
2021/05/13 02:31:44;;;;;;;4.73;3.70;;;;;;;;;;5051658;28;20505;-71
2021/05/13 02:34:10;;;;;;;4.03;3.10;;;;;;;;;;5051463;28;20473;-71
2021/05/13 02:36:37;;;;;;;5.10;4.20;;;;;;;;;;5033799;28;20442;-71
2021/05/13 02:39:03;;;;;;;4.37;3.97;;;;;;;;;;5033650;28;20501;-72
2021/05/13 02:44:33;;;;;;;4.20;3.90;;;;;;;;;;5051583;28;20939;-73
2021/05/13 02:46:59;;;;;;;5.03;4.00;;;;;;;;;;5054164;28;20405;-72
2021/05/13 02:49:25;;;;;;;5.97;4.00;;;;;;;;;;5055015;28;20414;-71
2021/05/13 02:51:51;;;;;;;10.90;4.60;;;;;;;;;;5055257;28;20833;-72
2021/05/13 02:54:17;;;;;;;4.63;3.93;;;;;;;;;;5055154;28;20440;-73
2021/05/13 02:59:49;;;;;;;5.20;3.93;;;;;;;;;;5054734;28;20413;-74
2021/05/13 03:02:16;;;;;;;6.90;3.97;;;;;;;;;;5055214;28;20444;-72
2021/05/13 03:04:43;;;;;;;4.20;3.80;;;;;;;;;;5054730;28;20773;-72
2021/05/13 03:07:09;;;;;;;8.40;4.63;;;;;;;;;;5055118;28;20836;-72
2021/05/13 03:09:39;;;;;;;4.97;4.07;;;;;;;;;;5055131;28;20750;-72
2021/05/13 03:12:05;;;;;;;7.30;4.13;;;;;;;;;;5054912;28;20480;-72
2021/05/13 03:14:32;;;;;;;5.20;4.10;;;;;;;;;;5054306;28;20421;-73
2021/05/13 03:16:58;;;;;;;5.50;4.60;;;;;;;;;;5054972;28;20564;-73
2021/05/13 03:19:34;;;;;;;6.40;5.53;;;;;;;;;;5054669;28;20410;-71
2021/05/13 03:22:04;;;;;;;5.93;4.13;;;;;;;;;;5054731;28;20537;-71
2021/05/13 03:24:42;;;;;;;5.33;4.83;;;;;;;;;;5054758;28;20426;-72
2021/05/13 03:30:11;;;;;;;5.97;5.37;;;;;;;;;;5053294;28;20413;-70
2021/05/13 03:32:37;;;;;;;7.63;5.73;;;;;;;;;;5054113;28;20424;-71
2021/05/13 03:35:04;;;;;;;9.83;5.17;;;;;;;;;;5054143;28;20475;-73
2021/05/13 03:37:30;;;;;;;7.33;5.60;;;;;;;;;;5054277;28;20516;-72
2021/05/13 03:39:57;;;;;;;8.53;5.80;;;;;;;;;;5054143;28;20916;-72
2021/05/13 03:42:23;;;;;;;7.30;5.67;;;;;;;;;;5054498;28;20413;-72
2021/05/13 03:44:51;;;;;;;12.50;6.20;;;;;;;;;;5054555;28;20414;-75
2021/05/13 03:47:17;;;;;;;10.50;5.80;;;;;;;;;;5053980;28;20966;-72
2021/05/13 03:49:43;;;;;;;9.27;6.40;;;;;;;;;;5053935;28;20414;-72
2021/05/13 03:52:10;;;;;;;8.40;6.10;;;;;;;;;;5054412;28;20468;-72
2021/05/13 03:54:36;;;;;;;7.80;6.40;;;;;;;;;;5054237;28;20500;-72
2021/05/13 04:00:09;;;;;;;8.20;5.73;;;;;;;;;;5053519;28;20471;-73
2021/05/13 04:02:35;;;;;;;6.60;5.93;;;;;;;;;;5036897;28;20882;-73
2021/05/13 04:05:01;;;;;;;7.90;6.07;;;;;;;;;;5054001;28;20430;-72
2021/05/13 04:07:29;;;;;;;6.80;6.20;;;;;;;;;;5053838;28;20947;-73
2021/05/13 04:09:55;;;;;;;8.40;6.60;;;;;;;;;;5053761;28;20425;-72
2021/05/13 04:15:25;;;;;;;10.37;6.93;;;;;;;;;;5053678;28;20419;-73
2021/05/13 04:17:51;;;;;;;8.17;6.73;;;;;;;;;;5053533;28;20422;-72
2021/05/13 04:20:17;;;;;;;6.80;6.10;;;;;;;;;;5053333;28;20427;-73
2021/05/13 04:22:42;;;;;;;7.80;7.10;;;;;;;;;;5035341;28;20578;-71
2021/05/13 04:25:09;;;;;;;7.80;7.00;;;;;;;;;;5053433;28;20772;-73
2021/05/13 04:30:38;;;;;;;6.67;6.07;;;;;;;;;;5053320;28;20936;-73
2021/05/13 04:33:04;;;;;;;10.77;7.07;;;;;;;;;;5053657;28;20464;-72
2021/05/13 04:35:30;;;;;;;8.97;7.00;;;;;;;;;;5053066;28;20480;-73
2021/05/13 04:37:56;;;;;;;7.70;5.77;;;;;;;;;;5053310;28;20481;-73
2021/05/13 04:40:22;;;;;;;8.50;6.23;;;;;;;;;;5053323;28;20413;-72
2021/05/13 04:45:51;;;;;;;5.77;5.27;;;;;;;;;;5053206;28;20465;-72
2021/05/13 04:48:20;;;;;;;4.90;4.40;;;;;;;;;;5053027;28;20406;-73
2021/05/13 04:50:46;;;;;;;9.40;5.83;;;;;;;;;;5052788;28;20960;-73
2021/05/13 04:53:14;;;;;;;6.43;5.30;;;;;;;;;;5052956;28;20427;-72
2021/05/13 04:55:41;;;;;;;7.13;4.57;;;;;;;;;;5052994;28;20407;-72
2021/05/13 04:58:07;;;;;;;6.43;5.87;;;;;;;;;;5052715;28;20411;-73
2021/05/13 05:00:34;;;;;;;8.63;5.30;;;;;;;;;;5052956;28;20454;-73
2021/05/13 05:03:00;;;;;;;7.63;4.90;;;;;;;;;;5053024;28;20445;-73
2021/05/13 05:05:26;;;;;;;5.50;5.10;;;;;;;;;;5052659;28;20893;-72
2021/05/13 05:07:52;;;;;;;6.77;5.20;;;;;;;;;;5052530;28;20455;-73
2021/05/13 05:10:18;;;;;;;6.43;5.40;;;;;;;;;;5052412;28;20406;-73
2021/05/13 05:15:48;;;;;;;7.00;4.97;;;;;;;;;;5052793;28;20450;-73
2021/05/13 05:18:21;;;;;;;6.20;5.70;;;;;;;;;;5052589;28;20411;-73
2021/05/13 05:20:48;;;;;;;6.23;4.40;;;;;;;;;;5052576;28;20486;-72
2021/05/13 05:23:14;;;;;;;5.07;4.47;;;;;;;;;;5052563;28;20439;-72
2021/05/13 05:25:40;;;;;;;6.50;4.93;;;;;;;;;;5052565;28;20404;-72
2021/05/13 05:31:09;;;;;;;5.10;4.63;;;;;;;;;;5052522;28;20505;-74
2021/05/13 05:33:35;;;;;;;5.47;5.07;;;;;;;;;;5052046;28;20456;-72
2021/05/13 05:36:01;;;;;;;5.90;4.90;;;;;;;;;;5052273;28;20438;-72
2021/05/13 05:38:27;;;;;;;6.37;5.30;;;;;;;;;;5052604;28;20415;-73
2021/05/13 05:40:53;;;;;;;6.30;5.27;;;;;;;;;;5052624;28;20421;-72
2021/05/13 05:46:23;;;;;;;5.97;5.47;;;;;;;;;;5052612;28;20429;-73
2021/05/13 05:48:49;;;;;;;5.07;4.57;;;;;;;;;;5052454;28;20419;-72
2021/05/13 05:51:15;;;;;;;6.67;4.90;;;;;;;;;;5052156;28;20813;-72
2021/05/13 05:53:41;;;;;;;5.50;5.00;;;;;;;;;;5051523;28;20526;-73
2021/05/13 05:56:07;;;;;;;8.60;5.13;;;;;;;;;;5052217;28;20924;-73
2021/05/13 06:01:38;;;;;;;6.27;5.67;;;;;;;;;;5052279;28;20510;-72
2021/05/13 06:04:05;;;;;;;5.90;5.30;;;;;;;;;;5051982;28;20405;-72
2021/05/13 06:06:31;;;;;;;6.80;4.30;;;;;;;;;;5034195;28;20407;-72
2021/05/13 06:08:57;;;;;;;5.27;4.20;;;;;;;;;;5052258;28;20469;-73
2021/05/13 06:11:23;;;;;;;6.13;5.00;;;;;;;;;;5051801;28;20470;-72
2021/05/13 06:13:49;;;;;;;6.83;5.40;;;;;;;;;;5052082;28;20403;-72
2021/05/13 06:16:15;;;;;;;5.10;4.70;;;;;;;;;;5051946;28;20411;-72
2021/05/13 06:18:54;;;;;;;5.20;4.53;;;;;;;;;;5051782;28;20885;-74
2021/05/13 06:21:22;;;;;;;5.00;4.50;;;;;;;;;;5054818;28;20423;-73
2021/05/13 06:23:49;;;;;;;6.43;4.40;;;;;;;;;;5055931;28;20758;-72
2021/05/13 06:32:18;;;;;;;7.00;5.10;;;;;;;;;;5055426;28;20502;-71
2021/05/13 06:34:44;;;;;;;7.63;5.70;;;;;;;;;;5055108;28;20582;-71
2021/05/13 06:37:10;;;;;;;5.13;4.47;;;;;;;;;;5055340;28;20523;-71
2021/05/13 06:39:36;;;;;;;5.20;4.70;;;;;;;;;;5055329;28;20913;-72
2021/05/13 06:42:03;;;;;;;3.93;3.53;;;;;;;;;;5055111;28;20419;-73
2021/05/13 06:44:30;;;;;;;5.27;4.77;;;;;;;;;;5055074;28;20442;-71
2021/05/13 06:46:56;;;;;;;3.63;3.33;;;;;;;;;;5055306;28;20441;-70
2021/05/13 06:49:22;;;;;;;5.50;3.53;;;;;;;;;;5054943;28;20418;-72
2021/05/13 06:51:48;;;;;;;4.60;4.10;;;;;;;;;;5055193;28;20473;-71
2021/05/13 06:54:14;;;;;;;4.07;3.67;;;;;;;;;;5054969;28;20771;-73
2021/05/13 06:56:41;;;;;;;10.80;3.40;;;;;;;;;;5055075;28;20425;-72
2021/05/13 07:02:10;;;;;;;3.17;2.83;;;;;;;;;;5054984;28;20465;-73
2021/05/13 07:04:37;;;;;;;6.97;3.20;;;;;;;;;;5055171;28;20411;-72
2021/05/13 07:07:03;;;;;;;3.10;2.80;;;;;;;;;;5055090;28;20483;-72
2021/05/13 07:09:29;;;;;;;3.70;3.40;;;;;;;;;;5054895;28;20411;-72
2021/05/13 07:11:55;;;;;;;4.60;3.10;;;;;;;;;;5055203;28;20520;-72
2021/05/13 07:17:24;;;;;;;3.87;2.80;;;;;;;;;;5054890;28;20477;-73
2021/05/13 07:19:50;;;;;;;6.57;6.00;;;;;;;;;;5054104;28;20866;-71
2021/05/13 07:22:18;;;;;;;3.40;3.10;;;;;;;;;;5054715;28;20477;-72
2021/05/13 07:24:44;;;;;;;3.90;2.83;;;;;;;;;;5054881;28;20517;-72
2021/05/13 07:27:10;;;;;;;3.87;2.73;;;;;;;;;;5054549;28;20415;-72
2021/05/13 07:32:40;;;;;;;3.43;2.63;;;;;;;;;;5053729;28;20803;-71
2021/05/13 07:35:06;;;;;;;5.90;3.20;;;;;;;;;;5054026;28;20541;-73
2021/05/13 07:37:33;;;;;;;4.80;2.60;;;;;;;;;;5054493;28;20457;-73
2021/05/13 07:39:59;;;;;;;3.30;3.00;;;;;;;;;;5054126;28;20446;-72
2021/05/13 07:42:26;;;;;;;3.30;2.57;;;;;;;;;;5054315;28;20403;-73
2021/05/13 07:47:55;;;;;;;4.40;2.70;;;;;;;;;;5054271;28;20963;-72
2021/05/13 07:50:24;;;;;;;4.20;2.30;;;;;;;;;;5049071;28;20477;-72
2021/05/13 07:55:55;;;;;;;3.20;2.90;;;;;;;;;;4895987;29;20508;-76
2021/05/13 07:58:24;;;;;;;4.43;4.03;;;;;;;;;;4910794;29;20539;-76
2021/05/13 08:00:51;;;;;;;3.50;3.20;;;;;;;;;;4911216;29;20456;-75
2021/05/13 08:03:18;;;;;;;4.93;3.13;;;;;;;;;;4910623;29;20445;-73
2021/05/13 08:05:45;;;;;;;3.37;3.03;;;;;;;;;;4911354;29;20520;-73
2021/05/13 08:08:12;;;;;;;3.60;2.83;;;;;;;;;;4911066;29;20888;-73
2021/05/13 08:10:39;;;;;;;3.30;2.73;;;;;;;;;;4909664;29;20526;-75
2021/05/13 08:13:05;;;;;;;4.07;2.70;;;;;;;;;;4901817;29;21035;-75
2021/05/13 08:15:32;;;;;;;3.23;2.93;;;;;;;;;;4905918;29;20501;-74
2021/05/13 08:18:02;;;;;;;3.87;3.20;;;;;;;;;;4906912;29;20859;-71
2021/05/13 08:20:32;;;;;;;4.20;2.60;;;;;;;;;;4911563;29;20633;-72
2021/05/13 08:22:59;;;;;;;3.13;2.20;;;;;;;;;;4916618;29;20484;-71
2021/05/13 08:25:29;;;;;;;2.47;2.27;;;;;;;;;;4914804;29;20567;-73
2021/05/13 08:27:56;;;;;;;3.97;2.20;;;;;;;;;;4912438;29;20453;-71
2021/05/13 08:30:23;;;;;;;4.30;2.20;;;;;;;;;;4912399;29;20449;-72
2021/05/13 08:32:53;;;;;;;1.53;1.43;;;;;;;;;;4911774;29;20471;-71
2021/05/13 08:35:20;;;;;;;2.07;1.87;;;;;;;;;;4911229;29;20464;-72
2021/05/13 08:37:46;;;;;;;2.10;1.90;;;;;;;;;;4912473;29;20453;-74
2021/05/13 08:40:13;;;;;;;3.33;2.00;;;;;;;;;;4913959;29;20736;-74
2021/05/13 08:42:40;;;;;;;2.27;1.90;;;;;;;;;;4908872;29;20454;-76
2021/05/13 08:45:11;;;;;;;1.97;1.87;;;;;;;;;;4908697;29;20456;-73
2021/05/13 08:47:44;;;;;;;2.70;2.30;;;;;;;;;;4905693;29;20464;-76
2021/05/13 08:50:12;;;;;;;6.17;2.40;;;;;;;;;;4911916;29;20545;-75
2021/05/13 08:52:42;;;;;;;1.90;1.77;;;;;;;;;;4910279;29;20484;-76
2021/05/13 08:55:13;;;;;;;3.70;2.13;;;;;;;;;;4911013;29;20561;-76
2021/05/13 08:57:40;;;;;;;2.63;2.43;;;;;;;;;;4933216;29;20452;-76
2021/05/13 09:00:16;;;;;;;3.37;2.67;;;;;;;;;;4935319;29;20448;-76
2021/05/13 09:02:52;;;;;;;1.90;1.73;;;;;;;;;;4933712;29;20977;-76
2021/05/13 09:05:22;;;;;;;4.47;2.47;;;;;;;;;;4930067;29;20463;-75
2021/05/13 09:07:49;;;;;;;2.10;1.90;;;;;;;;;;4914669;29;21046;-76
2021/05/13 09:10:17;;;;;;;2.53;2.10;;;;;;;;;;4921323;29;20454;-73
2021/05/13 09:12:48;;;;;;;3.13;2.10;;;;;;;;;;4917347;29;20907;-76
2021/05/13 09:15:21;;;;;;;6.13;2.10;;;;;;;;;;4925373;29;20441;-75
2021/05/13 09:18:14;;;;;;;2.20;2.00;;;;;;;;;;4916435;29;20445;-76
2021/05/13 09:20:43;;;;;;;2.27;1.70;;;;;;;;;;4920365;29;20760;-76
2021/05/13 09:23:11;;;;;;;7.00;2.30;;;;;;;;;;4929685;29;20447;-75
2021/05/13 09:25:42;;;;;;;5.80;1.97;;;;;;;;;;4916849;29;20495;-76
2021/05/13 09:28:09;;;;;;;2.50;1.77;;;;;;;;;;4927874;29;20970;-76
2021/05/13 09:30:36;;;;;;;1.90;1.80;;;;;;;;;;4926126;29;20476;-75
2021/05/13 09:33:10;;;;;;;1.90;1.80;;;;;;;;;;4929850;29;20444;-75
2021/05/13 09:35:41;;;;;;;2.00;1.80;;;;;;;;;;4930925;29;20544;-76
2021/05/13 09:38:08;;;;;;;1.70;1.60;;;;;;;;;;4931906;29;20448;-72
2021/05/13 09:40:36;;;;;;;1.90;1.70;;;;;;;;;;4931073;29;20764;-74
2021/05/13 09:43:32;;;;;;;1.53;1.43;;;;;;;;;;4929837;29;20444;-72
2021/05/13 09:45:59;;;;;;;4.37;1.70;;;;;;;;;;4942196;28;20551;-71
2021/05/13 09:48:42;;;;;;;1.40;1.30;;;;;;;;;;4933063;29;20440;-72
2021/05/13 09:51:17;;;;;;;1.63;1.50;;;;;;;;;;4928988;29;20476;-72
2021/05/13 09:53:43;;;;;;;1.87;1.60;;;;;;;;;;4933398;29;20479;-71
2021/05/13 09:56:25;;;;;;;2.23;1.93;;;;;;;;;;4932358;29;20470;-72
2021/05/13 09:58:51;;;;;;;4.60;1.53;;;;;;;;;;4929764;29;20459;-71
2021/05/13 10:01:18;;;;;;;2.33;1.40;;;;;;;;;;4945647;28;20448;-72
2021/05/13 10:03:45;;;;;;;4.70;2.23;;;;;;;;;;4931819;29;20443;-70
2021/05/13 10:06:11;;;;;;;1.87;1.77;;;;;;;;;;4929775;29;20819;-71
2021/05/13 10:08:42;;;;;;;2.50;1.50;;;;;;;;;;4930339;29;20440;-70
2021/05/13 10:11:08;;;;;;;5.27;2.07;;;;;;;;;;4929901;29;20544;-70
2021/05/13 10:13:35;;;;;;;2.63;2.03;;;;;;;;;;4928917;29;20507;-72
2021/05/13 10:16:02;;;;;;;3.73;2.17;;;;;;;;;;4933910;29;20428;-71
2021/05/13 10:18:40;;;;;;;2.70;2.47;;;;;;;;;;4932956;29;20476;-71
2021/05/13 10:21:12;;;;;;;2.93;2.40;;;;;;;;;;4931700;29;20451;-71
2021/05/13 10:23:38;;;;;;;2.47;1.90;;;;;;;;;;4935164;29;20452;-70
2021/05/13 10:26:04;;;;;;;4.30;1.97;;;;;;;;;;4945791;28;20531;-69
2021/05/13 10:28:32;;;;;;;3.03;2.00;;;;;;;;;;4931141;29;20436;-72
2021/05/13 10:30:59;;;;;;;2.70;1.70;;;;;;;;;;4932972;29;20895;-71
2021/05/13 10:33:25;;;;;;;3.07;2.20;;;;;;;;;;4929799;29;20770;-71
2021/05/13 10:36:03;;;;;;;2.27;2.00;;;;;;;;;;4924423;29;20471;-72
2021/05/13 10:38:39;;;;;;;2.60;1.93;;;;;;;;;;4926272;29;21131;-70
2021/05/13 10:41:25;;;;;;;2.10;1.90;;;;;;;;;;4927414;29;20451;-70
2021/05/13 10:43:52;;;;;;;3.27;1.93;;;;;;;;;;4926150;29;20448;-71
2021/05/13 10:46:28;;;;;;;3.30;1.43;;;;;;;;;;4926241;29;20548;-70
2021/05/13 10:49:23;;;;;;;3.60;1.20;;;;;;;;;;4926541;29;20455;-70
2021/05/13 10:51:54;;;;;;;2.07;1.40;;;;;;;;;;4926980;29;20504;-70
2021/05/13 10:54:30;;;;;;;2.70;1.10;;;;;;;;;;4924906;29;20535;-71
2021/05/13 10:57:22;;;;;;;1.37;1.20;;;;;;;;;;4928903;28;20464;-71
2021/05/13 11:00:11;;;;;;;1.27;0.90;;;;;;;;;;4929352;29;20444;-71
2021/05/13 11:02:48;;;;;;;2.00;1.00;;;;;;;;;;4929512;29;20440;-70
2021/05/13 11:05:30;;;;;;;1.53;1.00;;;;;;;;;;4930368;29;20530;-70
2021/05/13 11:08:04;;;;;;;1.67;1.33;;;;;;;;;;4932172;29;20982;-71
2021/05/13 11:10:49;;;;;;;3.00;1.00;;;;;;;;;;4934677;29;20452;-71
2021/05/13 11:13:15;;;;;;;2.50;1.10;;;;;;;;;;4934871;29;20835;-72
2021/05/13 11:15:45;;;;;;;2.40;1.13;;;;;;;;;;4929359;29;20457;-72
2021/05/13 11:18:17;;;;;;;2.80;1.10;;;;;;;;;;4933860;29;20452;-74
2021/05/13 11:20:51;;;;;;;2.57;1.30;;;;;;;;;;4934843;29;20545;-72
2021/05/13 11:23:18;;;;;;;2.87;1.40;;;;;;;;;;4936299;29;20473;-71
2021/05/13 11:26:11;;;;;;;2.73;1.20;;;;;;;;;;4934953;29;20511;-71
2021/05/13 11:28:57;;;;;;;2.20;2.00;;;;;;;;;;4935266;29;20444;-71
2021/05/13 11:31:34;;;;;;;2.63;1.77;;;;;;;;;;4935557;29;20478;-71
2021/05/13 11:34:04;;;;;;;2.93;1.67;;;;;;;;;;4935879;29;20505;-71
2021/05/13 11:36:45;;;;;;;4.30;3.50;;;;;;;;;;4934650;29;20445;-71
2021/05/13 11:39:13;;;;;;;1.70;1.30;;;;;;;;;;4935089;28;20452;-71
2021/05/13 11:41:49;;;;;;;1.53;1.10;;;;;;;;;;4935333;29;20467;-71
2021/05/13 11:44:27;;;;;;;3.70;1.07;;;;;;;;;;4934104;29;21020;-70
2021/05/13 11:46:57;;;;;;;4.30;1.20;;;;;;;;;;4935200;29;20452;-70
2021/05/13 11:49:56;;;;;;;2.27;1.47;;;;;;;;;;4934771;29;20466;-70
2021/05/13 11:52:31;;;;;;;0.70;0.60;;;;;;;;;;4936428;29;20921;-70
2021/05/13 11:55:00;;;;;;;1.07;0.73;;;;;;;;;;4932938;29;20856;-70
2021/05/13 11:57:36;;;;;;;1.27;1.10;;;;;;;;;;4935521;29;20425;-71
2021/05/13 12:00:03;;;;;;;1.60;0.70;;;;;;;;;;4935640;29;20746;-71
2021/05/13 12:02:36;;;;;;;1.57;0.53;;;;;;;;;;4935837;29;20424;-71
2021/05/13 12:05:15;;;;;;;2.53;1.00;;;;;;;;;;4935652;29;21050;-71
2021/05/13 12:07:48;;;;;;;2.37;1.30;;;;;;;;;;4935151;29;20919;-70
2021/05/13 12:10:30;;;;;;;4.70;1.20;;;;;;;;;;4935388;29;20903;-73
2021/05/13 12:13:07;;;;;;;1.47;1.00;;;;;;;;;;4935402;29;20436;-70
2021/05/13 12:15:33;;;;;;;2.27;0.50;;;;;;;;;;4935875;29;20420;-70
2021/05/13 12:17:59;;;;;;;2.10;0.90;;;;;;;;;;4935788;29;20451;-72
2021/05/13 12:20:25;;;;;;;3.10;1.30;;;;;;;;;;4936277;29;20417;-72
2021/05/13 12:22:51;;;;;;;1.40;1.10;;;;;;;;;;4935970;29;20488;-70
2021/05/13 12:25:18;;;;;;;0.57;0.57;;;;;;;;;;4935736;29;20420;-71
2021/05/13 12:27:44;;;;;;;1.30;0.60;;;;;;;;;;4936117;29;20512;-70
2021/05/13 12:30:11;;;;;;;1.00;0.60;;;;;;;;;;4935909;29;20420;-70
2021/05/13 12:32:37;;;;;;;1.50;0.57;;;;;;;;;;4935319;29;20495;-72
2021/05/13 12:35:21;;;;;;;1.50;1.00;;;;;;;;;;4935589;29;20413;-73
2021/05/13 12:37:47;;;;;;;1.37;1.00;;;;;;;;;;4934568;29;21098;-71
2021/05/13 12:40:14;;;;;;;1.53;0.90;;;;;;;;;;4935653;29;20456;-71
2021/05/13 12:42:40;;;;;;;0.93;0.60;;;;;;;;;;4935890;29;20420;-71
2021/05/13 12:45:21;;;;;;;2.00;0.70;;;;;;;;;;4935378;29;20424;-72
2021/05/13 12:47:57;;;;;;;1.27;0.60;;;;;;;;;;4934954;29;20433;-71
2021/05/13 12:50:26;;;;;;;0.47;0.40;;;;;;;;;;4935598;29;20428;-72
2021/05/13 12:53:07;;;;;;;1.90;0.57;;;;;;;;;;4935246;29;20813;-73
2021/05/13 12:55:37;;;;;;;0.50;0.40;;;;;;;;;;4934793;29;20574;-72
2021/05/13 12:58:08;;;;;;;0.90;0.70;;;;;;;;;;4935667;29;20444;-71
2021/05/13 13:00:34;;;;;;;1.07;0.70;;;;;;;;;;4934006;29;20456;-69
2021/05/13 13:03:04;;;;;;;0.63;0.63;;;;;;;;;;4935147;29;20518;-71
2021/05/13 13:05:30;;;;;;;2.40;0.73;;;;;;;;;;4933531;29;20440;-70
2021/05/13 13:07:56;;;;;;;1.63;0.60;;;;;;;;;;4935025;29;20451;-71
2021/05/13 13:10:26;;;;;;;0.87;0.57;;;;;;;;;;4934772;29;20856;-71
2021/05/13 13:13:02;;;;;;;1.00;0.57;;;;;;;;;;4935099;29;20482;-73
2021/05/13 13:15:32;;;;;;;0.60;0.60;;;;;;;;;;4934551;29;20412;-71
2021/05/13 13:18:02;;;;;;;0.60;0.60;;;;;;;;;;4934860;29;20432;-71
2021/05/13 13:20:30;;;;;;;4.20;1.07;;;;;;;;;;4933427;29;20547;-71
2021/05/13 13:23:14;;;;;;;1.90;0.70;;;;;;;;;;4934926;29;20420;-72
2021/05/13 13:25:40;;;;;;;1.87;1.10;;;;;;;;;;4934733;29;20499;-71
2021/05/13 13:28:06;;;;;;;1.80;0.83;;;;;;;;;;4935121;29;20439;-71
2021/05/13 13:30:32;;;;;;;4.53;0.70;;;;;;;;;;4934248;29;20428;-73
2021/05/13 13:32:59;;;;;;;1.23;0.70;;;;;;;;;;4934885;29;20445;-71
2021/05/13 13:35:27;;;;;;;1.50;0.60;;;;;;;;;;4933044;29;20454;-72
2021/05/13 13:37:53;;;;;;;0.80;0.80;;;;;;;;;;4934356;29;20420;-71
2021/05/13 13:40:19;;;;;;;2.03;0.80;;;;;;;;;;4933676;29;20420;-71
2021/05/13 13:42:45;;;;;;;0.50;0.50;;;;;;;;;;4933926;29;20814;-72
2021/05/13 13:45:11;;;;;;;0.73;0.40;;;;;;;;;;4933218;29;20409;-72
2021/05/13 13:47:37;;;;;;;1.00;0.80;;;;;;;;;;4934260;29;20470;-72
2021/05/13 13:50:04;;;;;;;0.90;0.50;;;;;;;;;;4934103;29;20413;-72
2021/05/13 13:52:30;;;;;;;2.90;0.73;;;;;;;;;;4934365;29;20472;-71
2021/05/13 13:54:56;;;;;;;1.50;0.60;;;;;;;;;;4933986;29;20574;-71
2021/05/13 13:57:22;;;;;;;0.70;0.60;;;;;;;;;;4934220;29;20496;-72
2021/05/13 13:59:48;;;;;;;2.73;0.50;;;;;;;;;;4934141;29;20427;-72
2021/05/13 14:02:14;;;;;;;1.87;0.60;;;;;;;;;;4934276;29;20484;-72
2021/05/13 14:04:40;;;;;;;1.10;0.60;;;;;;;;;;4933904;29;20942;-71
2021/05/13 14:07:06;;;;;;;1.77;0.80;;;;;;;;;;4933936;29;20409;-72
2021/05/13 14:09:32;;;;;;;1.90;1.00;;;;;;;;;;4933922;29;20421;-72
2021/05/13 14:15:01;;;;;;;0.43;0.30;;;;;;;;;;4934136;29;20452;-72
2021/05/13 14:17:29;;;;;;;1.47;0.50;;;;;;;;;;4934000;29;20942;-71
2021/05/13 14:19:56;;;;;;;1.00;0.40;;;;;;;;;;4933989;29;20964;-71
2021/05/13 14:22:22;;;;;;;1.50;0.40;;;;;;;;;;4934046;29;20728;-71
2021/05/13 14:24:48;;;;;;;2.13;0.67;;;;;;;;;;4933703;29;20967;-70
2021/05/13 14:30:18;;;;;;;0.93;0.63;;;;;;;;;;4933993;29;20419;-71
2021/05/13 14:32:46;;;;;;;0.60;0.40;;;;;;;;;;4934043;29;20831;-72
2021/05/13 14:35:12;;;;;;;0.77;0.47;;;;;;;;;;4934130;29;20419;-72
2021/05/13 14:37:39;;;;;;;0.80;0.50;;;;;;;;;;4933734;29;20428;-73
2021/05/13 14:40:06;;;;;;;3.23;0.50;;;;;;;;;;4933240;29;20417;-71
2021/05/13 14:42:32;;;;;;;1.07;0.53;;;;;;;;;;4937167;29;20417;-72
2021/05/13 14:45:02;;;;;;;1.20;0.60;;;;;;;;;;4937437;29;20413;-71
2021/05/13 14:47:28;;;;;;;2.00;0.57;;;;;;;;;;4937495;29;20424;-72
2021/05/13 14:49:54;;;;;;;2.77;0.60;;;;;;;;;;4937336;29;20841;-72
2021/05/13 14:52:20;;;;;;;2.47;1.10;;;;;;;;;;4937345;29;20526;-72
2021/05/13 14:54:46;;;;;;;1.73;1.00;;;;;;;;;;4937069;29;20919;-70
2021/05/13 15:00:21;;;;;;;2.50;2.30;;;;;;;;;;4937511;29;20435;-71
2021/05/13 15:02:48;;;;;;;0.77;0.70;;;;;;;;;;4937389;29;20779;-70
2021/05/13 15:05:14;;;;;;;2.10;1.43;;;;;;;;;;4936859;29;20891;-70
2021/05/13 15:07:40;;;;;;;0.97;0.70;;;;;;;;;;4937232;29;20752;-70
2021/05/13 15:10:07;;;;;;;1.07;0.70;;;;;;;;;;4936706;29;20420;-72
2021/05/13 15:15:36;;;;;;;1.43;0.77;;;;;;;;;;4936868;29;20536;-71
2021/05/13 15:18:02;;;;;;;0.97;0.80;;;;;;;;;;4936940;29;20408;-69
2021/05/13 15:20:30;;;;;;;1.23;0.90;;;;;;;;;;4936864;29;20532;-70
2021/05/13 15:22:56;;;;;;;2.87;0.90;;;;;;;;;;4936765;29;20431;-69
2021/05/13 15:25:23;;;;;;;1.33;0.80;;;;;;;;;;4936691;29;20412;-70
2021/05/13 15:30:53;;;;;;;2.07;0.90;;;;;;;;;;4936635;29;20985;-70
2021/05/13 15:33:19;;;;;;;1.80;0.67;;;;;;;;;;4935962;29;20432;-72
2021/05/13 15:35:45;;;;;;;1.27;0.80;;;;;;;;;;4935701;29;20424;-71
2021/05/13 15:38:11;;;;;;;1.90;1.00;;;;;;;;;;4935467;29;20900;-70
2021/05/13 15:40:39;;;;;;;0.80;0.80;;;;;;;;;;4935609;29;20468;-70
2021/05/13 15:43:06;;;;;;;1.10;0.73;;;;;;;;;;4935904;29;20492;-68
2021/05/13 15:45:32;;;;;;;2.67;0.70;;;;;;;;;;4935766;29;20443;-68
2021/05/13 15:47:58;;;;;;;0.83;0.80;;;;;;;;;;4935554;29;20930;-70
2021/05/13 15:50:24;;;;;;;0.67;0.67;;;;;;;;;;4935396;29;20421;-71
2021/05/13 15:52:52;;;;;;;1.60;0.60;;;;;;;;;;4934274;29;20503;-71
2021/05/13 15:55:18;;;;;;;0.60;0.60;;;;;;;;;;4934091;29;20476;-71
2021/05/13 16:00:48;;;;;;;0.70;0.70;;;;;;;;;;4935622;29;20934;-73
2021/05/13 16:03:15;;;;;;;1.10;0.80;;;;;;;;;;4935197;29;20420;-71
2021/05/13 16:05:41;;;;;;;0.80;0.80;;;;;;;;;;4935390;29;20429;-72
2021/05/13 16:08:08;;;;;;;1.10;0.40;;;;;;;;;;4935435;29;20408;-70
2021/05/13 16:10:45;;;;;;;0.70;0.60;;;;;;;;;;4935155;29;20459;-71
2021/05/13 16:16:15;;;;;;;2.13;0.70;;;;;;;;;;4935113;29;20424;-72
2021/05/13 16:18:43;;;;;;;2.23;1.00;;;;;;;;;;4935337;29;20424;-72
2021/05/13 16:21:09;;;;;;;0.50;0.50;;;;;;;;;;4935248;29;20427;-71
2021/05/13 16:23:35;;;;;;;1.03;0.70;;;;;;;;;;4935154;29;20455;-71
2021/05/13 16:26:02;;;;;;;1.40;0.70;;;;;;;;;;4934791;29;20421;-70
2021/05/13 16:28:28;;;;;;;0.90;0.90;;;;;;;;;;4934958;29;20970;-71